Time;durP1;ratioP1;P1;durP2;ratioP2;P2;SDS_P1;SDS_P2;PMS_P1;PMS_P2;Temp;Humidity;BMP_temperature;BMP_pressure;BME280_temperature;BME280_humidity;BME280_pressure;Samples;Min_cycle;Max_cycle;Signal;HPM_P1;HPM_P2
2023/09/27 00:00:35;;;;;;;;;;;20.70;52.50;;;;;;1564547;74;741;-69
2023/09/27 00:02:41;;;;;;;;;;;20.70;52.40;;;;;;1567600;74;777;-69
2023/09/27 00:04:42;;;;;;;;;;;20.70;52.40;;;;;;1570424;74;780;-69
2023/09/27 00:06:44;;;;;;;;;;;20.60;52.30;;;;;;1569499;74;686;-68
2023/09/27 00:08:46;;;;;;;;;;;20.70;52.40;;;;;;1561831;74;1148;-69
2023/09/27 00:10:48;;;;;;;;;;;20.70;52.30;;;;;;1564453;74;770;-68
2023/09/27 00:12:50;;;;;;;;;;;20.70;52.30;;;;;;1568406;74;742;-68
2023/09/27 00:14:53;;;;;;;;;;;20.70;52.30;;;;;;1567478;74;1938;-69
2023/09/27 00:16:55;;;;;;;;;;;20.70;52.30;;;;;;1569886;74;761;-69
2023/09/27 00:18:57;;;;;;;;;;;20.70;52.30;;;;;;1567445;74;1161;-68
2023/09/27 00:20:59;;;;;;;;;;;20.60;52.20;;;;;;1573625;74;728;-68
2023/09/27 00:23:01;;;;;;;;;;;20.70;52.20;;;;;;1568496;74;699;-68
2023/09/27 00:25:04;;;;;;;;;;;20.70;52.20;;;;;;1569978;75;744;-66
2023/09/27 00:27:07;;;;;;;;;;;20.70;52.20;;;;;;1568680;74;780;-68
2023/09/27 00:29:09;;;;;;;;;;;20.70;52.20;;;;;;1567439;74;1140;-68
2023/09/27 00:31:11;;;;;;;;;;;20.60;52.00;;;;;;1568289;74;796;-69
2023/09/27 00:33:13;;;;;;;;;;;20.70;52.10;;;;;;1566190;74;1305;-67
2023/09/27 00:35:19;;;;;;;;;;;20.70;52.10;;;;;;1567705;74;1946;-69
2023/09/27 00:37:18;;;;;;;;;;;20.60;51.90;;;;;;1558532;74;1008;-68
2023/09/27 00:39:20;;;;;;;;;;;20.60;52.00;;;;;;1563224;74;1163;-68
2023/09/27 00:41:22;;;;;;;;;;;20.70;52.10;;;;;;1567651;74;677;-67
2023/09/27 00:43:26;;;;;;;;;;;20.70;52.00;;;;;;1564974;74;758;-68
2023/09/27 00:45:28;;;;;;;;;;;20.60;51.80;;;;;;1564293;74;1761;-69
2023/09/27 00:47:31;;;;;;;;;;;20.70;51.90;;;;;;1570179;74;767;-69
2023/09/27 00:49:32;;;;;;;;;;;20.60;51.80;;;;;;1569515;74;1086;-68
2023/09/27 00:51:35;;;;;;;;;;;20.70;51.90;;;;;;1568877;74;665;-69
2023/09/27 00:53:37;;;;;;;;;;;20.60;51.70;;;;;;1565597;74;774;-69
2023/09/27 00:55:39;;;;;;;;;;;20.70;51.80;;;;;;1569730;74;1920;-69
2023/09/27 00:57:41;;;;;;;;;;;20.60;51.70;;;;;;1563448;74;706;-69
2023/09/27 00:59:43;;;;;;;;;;;20.60;51.70;;;;;;1560707;74;1135;-69
2023/09/27 01:01:45;;;;;;;;;;;20.60;51.70;;;;;;1568885;74;736;-68
2023/09/27 01:03:47;;;;;;;;;;;20.60;51.60;;;;;;1570444;74;795;-68
2023/09/27 01:05:49;;;;;;;;;;;20.60;51.50;;;;;;1563907;74;745;-69
2023/09/27 01:07:51;;;;;;;;;;;20.60;51.50;;;;;;1568525;74;779;-69
2023/09/27 01:09:53;;;;;;;;;;;20.60;51.50;;;;;;1562761;74;1137;-68
2023/09/27 01:11:55;;;;;;;;;;;20.60;51.50;;;;;;1563108;74;840;-68
2023/09/27 01:13:57;;;;;;;;;;;20.70;51.50;;;;;;1560138;74;749;-69
2023/09/27 01:15:59;;;;;;;;;;;20.50;51.30;;;;;;1561962;74;1931;-67
2023/09/27 01:18:01;;;;;;;;;;;20.60;51.30;;;;;;1568232;74;722;-69
2023/09/27 01:20:03;;;;;;;;;;;20.60;51.30;;;;;;1569896;75;1108;-69
2023/09/27 01:22:05;;;;;;;;;;;20.60;51.30;;;;;;1568726;74;738;-68
2023/09/27 01:24:07;;;;;;;;;;;20.60;51.30;;;;;;1564527;74;682;-69
2023/09/27 01:26:09;;;;;;;;;;;20.60;51.30;;;;;;1570023;74;762;-68
2023/09/27 01:28:11;;;;;;;;;;;20.60;51.30;;;;;;1567037;74;1129;-68
2023/09/27 01:30:13;;;;;;;;;;;20.60;51.20;;;;;;1567550;74;1453;-66
2023/09/27 01:32:15;;;;;;;;;;;20.60;51.20;;;;;;1575357;74;773;-68
2023/09/27 01:34:16;;;;;;;;;;;20.60;51.10;;;;;;1570060;74;809;-69
2023/09/27 01:36:18;;;;;;;;;;;20.60;51.10;;;;;;1569670;74;1930;-68
2023/09/27 01:38:20;;;;;;;;;;;20.60;51.10;;;;;;1568370;74;1155;-68
2023/09/27 01:40:26;;;;;;;;;;;20.60;51.10;;;;;;1571334;74;734;-68
2023/09/27 01:42:26;;;;;;;;;;;20.60;51.10;;;;;;1565704;74;1508;-68
2023/09/27 01:44:28;;;;;;;;;;;20.50;51.20;;;;;;1568178;74;652;-68
2023/09/27 01:46:30;;;;;;;;;;;20.60;51.10;;;;;;1569890;74;817;-68
2023/09/27 01:48:32;;;;;;;;;;;20.60;51.10;;;;;;1570319;74;1123;-65
2023/09/27 01:50:34;;;;;;;;;;;20.60;51.10;;;;;;1568660;74;717;-68
2023/09/27 01:52:36;;;;;;;;;;;20.60;51.10;;;;;;1566794;74;740;-67
2023/09/27 01:54:38;;;;;;;;;;;20.60;51.00;;;;;;1569559;74;781;-68
2023/09/27 01:56:40;;;;;;;;;;;20.60;51.00;;;;;;1568066;74;1926;-68
2023/09/27 01:58:42;;;;;;;;;;;20.60;51.10;;;;;;1566058;74;1168;-68
2023/09/27 02:00:43;;;;;;;;;;;20.60;51.10;;;;;;1564009;74;1059;-69
2023/09/27 02:02:47;;;;;;;;;;;20.60;51.20;;;;;;1568696;74;567;-69
2023/09/27 02:04:49;;;;;;;;;;;20.50;51.10;;;;;;1568467;74;933;-67
2023/09/27 02:06:51;;;;;;;;;;;20.50;51.10;;;;;;1563604;74;761;-68
2023/09/27 02:08:53;;;;;;;;;;;20.60;51.20;;;;;;1563218;74;1179;-68
2023/09/27 02:10:54;;;;;;;;;;;20.60;51.10;;;;;;1570568;74;678;-69
2023/09/27 02:12:56;;;;;;;;;;;20.60;51.20;;;;;;1563343;74;745;-69
2023/09/27 02:14:58;;;;;;;;;;;20.60;51.20;;;;;;1569356;74;691;-69
2023/09/27 02:17:00;;;;;;;;;;;20.60;51.20;;;;;;1573410;74;1993;-68
2023/09/27 02:19:04;;;;;;;;;;;20.60;51.20;;;;;;1568711;74;1140;-68
2023/09/27 02:21:06;;;;;;;;;;;20.60;51.20;;;;;;1562116;74;1652;-68
2023/09/27 02:23:07;;;;;;;;;;;20.60;51.20;;;;;;1570672;74;728;-67
2023/09/27 02:25:11;;;;;;;;;;;20.50;51.20;;;;;;1568007;74;1522;-68
2023/09/27 02:27:14;;;;;;;;;;;20.60;51.20;;;;;;1567800;74;645;-69
2023/09/27 02:29:16;;;;;;;;;;;20.60;51.20;;;;;;1566793;74;1196;-68
2023/09/27 02:31:17;;;;;;;;;;;20.60;51.20;;;;;;1569586;74;730;-68
2023/09/27 02:33:20;;;;;;;;;;;20.60;51.20;;;;;;1571119;74;758;-68
2023/09/27 02:35:22;;;;;;;;;;;20.60;51.30;;;;;;1569020;74;754;-69
2023/09/27 02:37:25;;;;;;;;;;;20.60;51.20;;;;;;1566386;74;1931;-68
2023/09/27 02:39:28;;;;;;;;;;;20.60;51.20;;;;;;1569182;74;1188;-68
2023/09/27 02:41:30;;;;;;;;;;;20.60;51.20;;;;;;1565250;74;683;-68
2023/09/27 02:43:32;;;;;;;;;;;20.60;51.20;;;;;;1561000;74;716;-68
2023/09/27 02:45:37;;;;;;;;;;;20.60;51.20;;;;;;1570011;75;746;-69
2023/09/27 02:47:39;;;;;;;;;;;20.60;51.20;;;;;;1569438;74;951;-69
2023/09/27 02:49:41;;;;;;;;;;;20.60;51.10;;;;;;1570071;74;1132;-69
2023/09/27 02:51:43;;;;;;;;;;;20.60;51.00;;;;;;1566072;74;715;-68
2023/09/27 02:53:44;;;;;;;;;;;20.60;51.10;;;;;;1563914;74;730;-69
2023/09/27 02:55:46;;;;;;;;;;;20.60;51.00;;;;;;1569774;74;1936;-68
2023/09/27 02:57:50;;;;;;;;;;;20.50;51.00;;;;;;1571666;74;739;-69
2023/09/27 02:59:52;;;;;;;;;;;20.60;51.00;;;;;;1566151;74;1599;-68
2023/09/27 03:01:54;;;;;;;;;;;20.60;51.00;;;;;;1565494;74;677;-69
2023/09/27 03:03:55;;;;;;;;;;;20.50;51.10;;;;;;1563929;74;692;-70
2023/09/27 03:06:00;;;;;;;;;;;20.60;51.00;;;;;;1569185;74;763;-68
2023/09/27 03:08:03;;;;;;;;;;;20.60;51.00;;;;;;1568146;74;917;-69
2023/09/27 03:10:10;;;;;;;;;;;20.60;51.00;;;;;;1568177;74;1100;-67
2023/09/27 03:12:09;;;;;;;;;;;20.60;50.90;;;;;;1560916;74;1589;-69
2023/09/27 03:14:11;;;;;;;;;;;20.50;50.90;;;;;;1568072;74;597;-68
2023/09/27 03:16:14;;;;;;;;;;;20.60;50.80;;;;;;1563437;74;1906;-68
2023/09/27 03:18:17;;;;;;;;;;;20.50;50.80;;;;;;1564902;74;1143;-68
2023/09/27 03:20:19;;;;;;;;;;;20.50;50.80;;;;;;1568184;74;697;-68
2023/09/27 03:22:21;;;;;;;;;;;20.60;50.80;;;;;;1578038;74;1609;-69
2023/09/27 03:24:25;;;;;;;;;;;20.50;50.80;;;;;;1572226;74;783;-68
2023/09/27 03:26:26;;;;;;;;;;;20.50;50.80;;;;;;1568376;74;1675;-67
2023/09/27 03:28:28;;;;;;;;;;;20.50;50.70;;;;;;1576950;74;1140;-68
2023/09/27 03:30:30;;;;;;;;;;;20.50;50.70;;;;;;1569656;74;796;-69
2023/09/27 03:32:32;;;;;;;;;;;20.50;50.70;;;;;;1575924;74;771;-68
2023/09/27 03:34:35;;;;;;;;;;;20.50;50.60;;;;;;1567433;74;668;-69
2023/09/27 03:36:38;;;;;;;;;;;20.50;50.60;;;;;;1572209;74;1933;-69
2023/09/27 03:38:40;;;;;;;;;;;20.50;50.50;;;;;;1575891;74;1104;-69
2023/09/27 03:40:42;;;;;;;;;;;20.50;50.50;;;;;;1579526;74;875;-69
2023/09/27 03:42:44;;;;;;;;;;;20.50;50.50;;;;;;1574501;74;629;-69
2023/09/27 03:44:51;;;;;;;;;;;20.50;50.50;;;;;;1575056;74;669;-69
2023/09/27 03:46:50;;;;;;;;;;;20.50;50.50;;;;;;1571752;74;1667;-68
2023/09/27 03:48:52;;;;;;;;;;;20.50;50.40;;;;;;1565066;74;1150;-68
2023/09/27 03:50:54;;;;;;;;;;;20.50;50.40;;;;;;1576101;74;742;-68
2023/09/27 03:52:56;;;;;;;;;;;20.50;50.40;;;;;;1566982;74;745;-69
2023/09/27 03:54:58;;;;;;;;;;;20.50;50.40;;;;;;1573203;74;732;-70
2023/09/27 03:57:00;;;;;;;;;;;20.50;50.30;;;;;;1574457;74;1948;-69
2023/09/27 03:59:02;;;;;;;;;;;20.50;50.30;;;;;;1570052;74;1155;-67
2023/09/27 04:01:04;;;;;;;;;;;20.50;50.30;;;;;;1571501;74;745;-69
2023/09/27 04:03:06;;;;;;;;;;;20.50;50.20;;;;;;1569274;74;1016;-69
2023/09/27 04:05:09;;;;;;;;;;;20.50;50.20;;;;;;1571160;74;726;-68
2023/09/27 04:07:11;;;;;;;;;;;20.50;50.20;;;;;;1576511;74;806;-68
2023/09/27 04:09:13;;;;;;;;;;;20.50;50.20;;;;;;1575891;74;1098;-68
2023/09/27 04:11:15;;;;;;;;;;;20.50;50.20;;;;;;1573682;74;681;-69
2023/09/27 04:13:17;;;;;;;;;;;20.50;50.20;;;;;;1576268;74;793;-67
2023/09/27 04:15:19;;;;;;;;;;;20.50;50.10;;;;;;1575852;74;657;-68
2023/09/27 04:17:21;;;;;;;;;;;20.80;50.10;;;;;;1562000;74;1906;-69
2023/09/27 04:19:23;;;;;;;;;;;20.50;50.00;;;;;;1578367;74;1692;-69
2023/09/27 04:21:25;;;;;;;;;;;20.50;50.00;;;;;;1574290;74;736;-69
2023/09/27 04:23:27;;;;;;;;;;;20.50;50.00;;;;;;1576982;74;813;-70
2023/09/27 04:25:29;;;;;;;;;;;20.40;49.90;;;;;;1581019;74;715;-70
2023/09/27 04:27:31;;;;;;;;;;;20.50;50.00;;;;;;1572600;74;743;-67
2023/09/27 04:29:33;;;;;;;;;;;20.50;50.00;;;;;;1572751;74;1144;-68
2023/09/27 04:31:35;;;;;;;;;;;20.40;49.80;;;;;;1574201;74;822;-68
2023/09/27 04:33:38;;;;;;;;;;;20.40;49.70;;;;;;1571609;74;686;-68
2023/09/27 04:35:40;;;;;;;;;;;20.50;49.80;;;;;;1576840;74;798;-68
2023/09/27 04:37:42;;;;;;;;;;;20.50;49.70;;;;;;1569965;74;1942;-69
2023/09/27 04:39:44;;;;;;;;;;;20.50;49.80;;;;;;1566540;74;1153;-67
2023/09/27 04:41:49;;;;;;;;;;;20.50;49.80;;;;;;1573885;74;738;-68
2023/09/27 04:43:51;;;;;;;;;;;20.50;49.80;;;;;;1572919;74;1123;-69
2023/09/27 04:45:53;;;;;;;;;;;20.40;49.70;;;;;;1574942;74;791;-68
2023/09/27 04:47:55;;;;;;;;;;;20.40;49.60;;;;;;1570478;74;586;-68
2023/09/27 04:49:57;;;;;;;;;;;20.40;49.70;;;;;;1567784;74;1114;-68
2023/09/27 04:51:59;;;;;;;;;;;20.50;49.70;;;;;;1578424;74;844;-69
2023/09/27 04:54:03;;;;;;;;;;;20.40;49.50;;;;;;1569554;74;812;-68
2023/09/27 04:56:05;;;;;;;;;;;20.40;49.50;;;;;;1568316;74;2003;-69
2023/09/27 04:58:07;;;;;;;;;;;20.40;49.40;;;;;;1572623;74;1932;-67
2023/09/27 05:00:18;;;;;;;;;;;20.40;49.40;;;;;;1578641;74;1109;-67
2023/09/27 05:02:16;;;;;;;;;;;20.50;49.40;;;;;;1560313;74;1742;-68
2023/09/27 05:04:18;;;;;;;;;;;20.50;49.40;;;;;;1527798;76;696;-69
2023/09/27 05:06:20;;;;;;;;;;;20.50;49.50;;;;;;1512449;77;839;-68
2023/09/27 05:08:22;;;;;;;;;;;20.50;49.40;;;;;;1513002;77;1100;-68
2023/09/27 05:10:24;;;;;;;;;;;20.40;49.30;;;;;;1525042;76;805;-68
2023/09/27 05:12:25;;;;;;;;;;;20.40;49.20;;;;;;1527882;76;665;-68
2023/09/27 05:14:27;;;;;;;;;;;20.40;49.20;;;;;;1507443;77;1381;-68
2023/09/27 05:16:29;;;;;;;;;;;20.40;49.20;;;;;;1504548;77;729;-68
2023/09/27 05:18:31;;;;;;;;;;;20.40;49.20;;;;;;1488297;78;1289;-66
2023/09/27 05:20:34;;;;;;;;;;;20.40;49.20;;;;;;1574522;74;804;-69
2023/09/27 05:22:37;;;;;;;;;;;20.40;49.20;;;;;;1573247;74;766;-68
2023/09/27 05:24:39;;;;;;;;;;;20.50;49.30;;;;;;1580793;74;770;-65
2023/09/27 05:26:41;;;;;;;;;;;20.50;49.20;;;;;;1575995;74;815;-68
2023/09/27 05:28:43;;;;;;;;;;;20.40;49.20;;;;;;1575918;74;1154;-70
2023/09/27 05:30:46;;;;;;;;;;;20.80;49.30;;;;;;1574293;74;691;-68
2023/09/27 05:32:47;;;;;;;;;;;20.40;49.20;;;;;;1579707;74;821;-69
2023/09/27 05:34:50;;;;;;;;;;;20.40;49.20;;;;;;1571432;74;660;-66
2023/09/27 05:36:52;;;;;;;;;;;20.40;49.20;;;;;;1574438;74;1920;-69
2023/09/27 05:38:54;;;;;;;;;;;21.00;49.50;;;;;;1577854;74;1249;-67
2023/09/27 05:40:56;;;;;;;;;;;20.40;49.10;;;;;;1573024;74;598;-68
2023/09/27 05:42:58;;;;;;;;;;;20.40;49.10;;;;;;1575360;74;731;-68
2023/09/27 05:44:59;;;;;;;;;;;20.40;49.10;;;;;;1579039;74;775;-68
2023/09/27 05:47:01;;;;;;;;;;;20.30;49.10;;;;;;1577240;74;710;-68
2023/09/27 05:49:07;;;;;;;;;;;20.40;49.00;;;;;;1580288;74;1147;-68
2023/09/27 05:51:07;;;;;;;;;;;20.40;49.00;;;;;;1573222;74;1898;-67
2023/09/27 05:53:11;;;;;;;;;;;20.40;49.10;;;;;;1578739;74;766;-69
2023/09/27 05:55:14;;;;;;;;;;;20.40;49.00;;;;;;1573183;74;584;-68
2023/09/27 05:57:16;;;;;;;;;;;20.50;49.20;;;;;;1570797;74;1888;-68
2023/09/27 05:59:18;;;;;;;;;;;20.40;49.10;;;;;;1573102;74;1133;-69
2023/09/27 06:01:20;;;;;;;;;;;20.40;49.10;;;;;;1575645;74;788;-69
2023/09/27 06:03:22;;;;;;;;;;;20.30;49.10;;;;;;1575987;74;1032;-69
2023/09/27 06:05:24;;;;;;;;;;;20.50;49.30;;;;;;1576575;74;715;-67
2023/09/27 06:07:26;;;;;;;;;;;20.50;49.30;;;;;;1577778;74;775;-66
2023/09/27 06:09:27;;;;;;;;;;;20.40;49.20;;;;;;1571483;74;1153;-68
2023/09/27 06:11:29;;;;;;;;;;;20.40;49.30;;;;;;1573791;74;1614;-69
2023/09/27 06:13:31;;;;;;;;;;;20.40;49.30;;;;;;1571544;74;835;-67
2023/09/27 06:15:33;;;;;;;;;;;20.40;49.40;;;;;;1574708;74;765;-68
2023/09/27 06:17:35;;;;;;;;;;;20.40;49.40;;;;;;1572126;74;1911;-68
2023/09/27 06:19:37;;;;;;;;;;;20.40;49.40;;;;;;1574786;74;1168;-67
2023/09/27 06:21:39;;;;;;;;;;;20.40;49.50;;;;;;1573574;74;687;-68
2023/09/27 06:23:41;;;;;;;;;;;20.50;49.60;;;;;;1571056;74;625;-69
2023/09/27 06:25:46;;;;;;;;;;;20.50;49.60;;;;;;1574742;74;627;-70
2023/09/27 06:27:47;;;;;;;;;;;20.40;49.50;;;;;;1568921;74;1674;-67
2023/09/27 06:29:49;;;;;;;;;;;20.40;49.60;;;;;;1576731;74;1147;-68
2023/09/27 06:31:51;;;;;;;;;;;20.40;49.60;;;;;;1571751;74;757;-67
2023/09/27 06:33:53;;;;;;;;;;;20.40;49.60;;;;;;1574054;74;813;-67
2023/09/27 06:35:57;;;;;;;;;;;20.50;49.80;;;;;;1575581;74;683;-70
2023/09/27 06:38:00;;;;;;;;;;;20.40;49.70;;;;;;1574140;74;1941;-65
2023/09/27 06:40:04;;;;;;;;;;;20.50;49.90;;;;;;1578877;74;1096;-67
2023/09/27 06:42:07;;;;;;;;;;;20.50;49.90;;;;;;1573585;74;762;-68
2023/09/27 06:44:09;;;;;;;;;;;20.50;50.00;;;;;;1574500;74;724;-70
2023/09/27 06:46:12;;;;;;;;;;;20.40;50.00;;;;;;1573483;74;736;-70
2023/09/27 06:48:18;;;;;;;;;;;20.50;50.00;;;;;;1568694;74;1166;-68
2023/09/27 06:50:18;;;;;;;;;;;20.50;50.20;;;;;;1569443;74;1585;-68
2023/09/27 06:52:20;;;;;;;;;;;20.50;50.20;;;;;;1571442;74;574;-68
2023/09/27 06:54:22;;;;;;;;;;;20.50;50.30;;;;;;1575041;74;685;-68
2023/09/27 06:56:24;;;;;;;;;;;20.40;50.20;;;;;;1578463;74;682;-68
2023/09/27 06:58:26;;;;;;;;;;;20.50;50.50;;;;;;1566138;74;1931;-69
2023/09/27 07:00:28;;;;;;;;;;;20.50;50.50;;;;;;1571444;74;762;-68
2023/09/27 07:02:29;;;;;;;;;;;20.50;50.50;;;;;;1568361;74;742;-68
2023/09/27 07:04:31;;;;;;;;;;;20.50;50.60;;;;;;1573601;74;731;-67
2023/09/27 07:06:33;;;;;;;;;;;20.50;50.70;;;;;;1570312;74;1587;-68
2023/09/27 07:08:35;;;;;;;;;;;20.50;50.80;;;;;;1577650;74;1102;-68
2023/09/27 07:10:37;;;;;;;;;;;20.40;50.90;;;;;;1570009;74;633;-68
2023/09/27 07:12:40;;;;;;;;;;;20.40;50.90;;;;;;1570031;74;772;-65
2023/09/27 07:14:43;;;;;;;;;;;20.50;51.00;;;;;;1573802;74;831;-68
2023/09/27 07:16:46;;;;;;;;;;;20.50;51.00;;;;;;1570173;74;828;-68
2023/09/27 07:18:48;;;;;;;;;;;20.50;51.00;;;;;;1566041;74;1922;-69
2023/09/27 07:20:51;;;;;;;;;;;20.50;51.20;;;;;;1569668;74;714;-69
2023/09/27 07:22:53;;;;;;;;;;;20.50;51.10;;;;;;1574014;74;803;-68
2023/09/27 07:24:55;;;;;;;;;;;20.50;51.00;;;;;;1573817;74;799;-68
2023/09/27 07:26:56;;;;;;;;;;;20.50;51.10;;;;;;1572980;74;956;-68
2023/09/27 07:29:00;;;;;;;;;;;20.50;51.10;;;;;;1566814;74;1111;-68
2023/09/27 07:31:02;;;;;;;;;;;20.60;51.10;;;;;;1569277;74;794;-67
2023/09/27 07:33:10;;;;;;;;;;;20.50;51.00;;;;;;1570033;74;756;-65
2023/09/27 07:35:10;;;;;;;;;;;20.60;51.00;;;;;;1572315;74;1584;-68
2023/09/27 07:37:12;;;;;;;;;;;20.60;50.90;;;;;;1571766;74;687;-66
2023/09/27 07:39:15;;;;;;;;;;;20.60;50.80;;;;;;1573170;74;1902;-68
2023/09/27 07:41:17;;;;;;;;;;;20.60;50.80;;;;;;1567665;74;749;-68
2023/09/27 07:43:19;;;;;;;;;;;20.60;50.80;;;;;;1573098;74;658;-69
2023/09/27 07:45:21;;;;;;;;;;;20.60;50.80;;;;;;1576547;74;807;-65
2023/09/27 07:47:24;;;;;;;;;;;20.60;50.80;;;;;;1572319;74;774;-66
2023/09/27 07:49:26;;;;;;;;;;;20.60;50.70;;;;;;1574995;74;1145;-68
2023/09/27 07:51:28;;;;;;;;;;;20.60;50.80;;;;;;1579269;74;757;-68
2023/09/27 07:53:30;;;;;;;;;;;20.70;51.10;;;;;;1577644;74;808;-69
2023/09/27 07:55:32;;;;;;;;;;;20.60;51.00;;;;;;1577696;74;808;-67
2023/09/27 07:57:34;;;;;;;;;;;20.70;51.20;;;;;;1570008;74;1907;-68
2023/09/27 07:59:36;;;;;;;;;;;20.60;51.10;;;;;;1573912;74;1149;-69
2023/09/27 08:01:38;;;;;;;;;;;20.70;51.30;;;;;;1572246;74;735;-69
2023/09/27 08:03:40;;;;;;;;;;;20.70;51.30;;;;;;1570693;74;1520;-68
2023/09/27 08:05:45;;;;;;;;;;;20.70;51.50;;;;;;1578265;74;792;-67
2023/09/27 08:07:48;;;;;;;;;;;20.70;51.50;;;;;;1577456;74;717;-67
2023/09/27 08:09:50;;;;;;;;;;;20.70;51.60;;;;;;1571631;74;1122;-68
2023/09/27 08:11:52;;;;;;;;;;;20.70;51.60;;;;;;1569720;74;712;-68
2023/09/27 08:13:54;;;;;;;;;;;20.70;51.80;;;;;;1568485;74;774;-68
2023/09/27 08:15:56;;;;;;;;;;;20.70;51.90;;;;;;1573783;74;673;-68
2023/09/27 08:17:58;;;;;;;;;;;20.70;52.00;;;;;;1569299;74;1930;-69
2023/09/27 08:20:00;;;;;;;;;;;20.80;52.00;;;;;;1575829;74;1130;-69
2023/09/27 08:22:02;;;;;;;;;;;20.80;52.10;;;;;;1569627;74;845;-67
2023/09/27 08:24:04;;;;;;;;;;;20.80;52.20;;;;;;1567130;74;733;-68
2023/09/27 08:26:06;;;;;;;;;;;20.70;52.40;;;;;;1572724;74;725;-68
2023/09/27 08:28:09;;;;;;;;;;;20.70;52.40;;;;;;1577990;74;779;-68
2023/09/27 08:30:11;;;;;;;;;;;20.70;52.60;;;;;;1579607;74;1219;-68
2023/09/27 08:32:13;;;;;;;;;;;20.70;52.60;;;;;;1574472;74;780;-69
2023/09/27 08:34:15;;;;;;;;;;;20.80;52.70;;;;;;1574974;74;809;-67
2023/09/27 08:36:17;;;;;;;;;;;20.80;52.70;;;;;;1569780;74;735;-68
2023/09/27 08:38:19;;;;;;;;;;;20.80;52.80;;;;;;1573717;74;1931;-68
2023/09/27 08:40:21;;;;;;;;;;;20.90;53.00;;;;;;1567966;74;709;-67
2023/09/27 08:42:23;;;;;;;;;;;20.70;53.00;;;;;;1566278;74;808;-67
2023/09/27 08:44:25;;;;;;;;;;;20.80;53.10;;;;;;1571129;74;737;-68
2023/09/27 08:46:27;;;;;;;;;;;20.80;53.30;;;;;;1572298;74;962;-68
2023/09/27 08:48:29;;;;;;;;;;;20.80;53.50;;;;;;1580874;74;1132;-68
2023/09/27 08:50:31;;;;;;;;;;;20.80;53.50;;;;;;1571816;74;702;-68
2023/09/27 08:52:33;;;;;;;;;;;20.80;53.70;;;;;;1575154;74;604;-68
2023/09/27 08:54:35;;;;;;;;;;;20.80;53.80;;;;;;1565452;74;787;-68
2023/09/27 08:56:37;;;;;;;;;;;20.80;53.90;;;;;;1566482;74;625;-69
2023/09/27 08:58:38;;;;;;;;;;;20.90;54.10;;;;;;1579064;74;1923;-69
2023/09/27 09:00:41;;;;;;;;;;;20.80;54.10;;;;;;1567739;74;803;-66
2023/09/27 09:02:43;;;;;;;;;;;20.80;54.20;;;;;;1574851;74;847;-70
2023/09/27 09:04:45;;;;;;;;;;;20.80;54.20;;;;;;1566471;74;742;-69
2023/09/27 09:06:47;;;;;;;;;;;20.90;54.40;;;;;;1573798;74;594;-67
2023/09/27 09:08:50;;;;;;;;;;;20.90;54.50;;;;;;1575113;74;1257;-68
2023/09/27 09:10:52;;;;;;;;;;;20.90;54.50;;;;;;1572672;74;711;-68
2023/09/27 09:12:54;;;;;;;;;;;20.90;54.70;;;;;;1571666;74;582;-67
2023/09/27 09:14:56;;;;;;;;;;;20.90;54.60;;;;;;1575904;74;813;-68
2023/09/27 09:16:58;;;;;;;;;;;20.90;54.70;;;;;;1581647;74;720;-68
2023/09/27 09:19:03;;;;;;;;;;;20.90;54.70;;;;;;1577462;74;1924;-69
2023/09/27 09:21:08;;;;;;;;;;;20.90;54.70;;;;;;1568980;74;1604;-68
2023/09/27 09:23:12;;;;;;;;;;;20.90;54.80;;;;;;1576320;74;688;-66
2023/09/27 09:25:13;;;;;;;;;;;20.90;54.90;;;;;;1578346;74;1674;-69
2023/09/27 09:27:16;;;;;;;;;;;20.90;55.00;;;;;;1579802;74;729;-68
2023/09/27 09:29:18;;;;;;;;;;;20.90;55.00;;;;;;1570174;74;1166;-68
2023/09/27 09:31:23;;;;;;;;;;;20.90;55.20;;;;;;1574698;74;782;-68
2023/09/27 09:33:36;;;;;;;;;;;20.90;55.30;;;;;;1574032;74;802;-68
2023/09/27 09:35:34;;;;;;;;;;;20.90;55.50;;;;;;1580855;74;1743;-68
2023/09/27 09:37:39;;;;;;;;;;;20.90;55.60;;;;;;1575666;74;779;-69
2023/09/27 09:39:40;;;;;;;;;;;20.90;55.50;;;;;;1576978;74;1946;-68
2023/09/27 09:41:48;;;;;;;;;;;21.00;55.60;;;;;;1572418;74;795;-69
2023/09/27 09:43:50;;;;;;;;;;;20.90;55.70;;;;;;1578163;74;805;-68
2023/09/27 09:45:52;;;;;;;;;;;20.90;55.80;;;;;;1578860;74;814;-68
2023/09/27 09:47:54;;;;;;;;;;;20.90;55.80;;;;;;1578663;74;810;-66
2023/09/27 09:49:56;;;;;;;;;;;20.90;55.80;;;;;;1579522;74;1090;-67
2023/09/27 09:51:58;;;;;;;;;;;20.90;56.10;;;;;;1572270;74;694;-68
2023/09/27 09:53:59;;;;;;;;;;;20.90;56.00;;;;;;1578351;74;793;-69
2023/09/27 09:56:02;;;;;;;;;;;20.90;56.00;;;;;;1569219;74;1374;-68
2023/09/27 09:58:25;;;;;;;;;;;21.00;56.20;;;;;;1576026;74;792;-68
2023/09/27 10:00:27;;;;;;;;;;;20.90;56.20;;;;;;1570930;74;706;-68
2023/09/27 10:02:30;;;;;;;;;;;20.90;56.30;;;;;;1570261;74;641;-67
2023/09/27 10:04:32;;;;;;;;;;;20.90;56.30;;;;;;1575679;74;701;-67
2023/09/27 10:06:33;;;;;;;;;;;21.00;56.50;;;;;;1576910;74;663;-69
2023/09/27 10:08:38;;;;;;;;;;;20.90;56.60;;;;;;1577067;74;1138;-69
2023/09/27 10:10:39;;;;;;;;;;;20.90;56.60;;;;;;1569169;74;1479;-65
2023/09/27 10:12:44;;;;;;;;;;;21.00;56.80;;;;;;1573813;74;730;-69
2023/09/27 10:14:46;;;;;;;;;;;21.00;56.80;;;;;;1574570;74;1053;-68
2023/09/27 10:16:48;;;;;;;;;;;20.90;57.00;;;;;;1582630;74;737;-69
2023/09/27 10:18:50;;;;;;;;;;;21.00;57.10;;;;;;1566753;74;1956;-67
2023/09/27 10:21:07;;;;;;;;;;;20.90;57.20;;;;;;1567083;74;767;-68
2023/09/27 10:23:10;;;;;;;;;;;21.00;57.20;;;;;;1562182;74;699;-68
2023/09/27 10:25:14;;;;;;;;;;;21.00;57.10;;;;;;1572524;74;693;-68
2023/09/27 10:27:16;;;;;;;;;;;21.00;57.20;;;;;;1563404;74;1647;-68
2023/09/27 10:29:18;;;;;;;;;;;21.00;57.30;;;;;;1579747;74;1165;-68
2023/09/27 10:31:20;;;;;;;;;;;21.00;57.30;;;;;;1572685;74;694;-68
2023/09/27 10:33:24;;;;;;;;;;;21.00;57.40;;;;;;1565189;74;704;-68
2023/09/27 10:35:27;;;;;;;;;;;21.00;57.50;;;;;;1565053;74;1204;-68
2023/09/27 10:37:49;;;;;;;;;;;21.00;57.40;;;;;;1565404;74;707;-68
2023/09/27 10:40:12;;;;;;;;;;;21.00;57.40;;;;;;1494223;78;1946;-67
2023/09/27 10:42:13;;;;;;;;;;;21.00;57.50;;;;;;1489915;78;1017;-68
2023/09/27 10:44:30;;;;;;;;;;;21.00;57.40;;;;;;1487448;78;1067;-68
2023/09/27 10:46:43;;;;;;;;;;;21.00;57.40;;;;;;1575075;74;882;-68
2023/09/27 10:48:47;;;;;;;;;;;21.00;57.30;;;;;;1580195;74;1139;-68
2023/09/27 10:50:58;;;;;;;;;;;21.00;57.40;;;;;;1573849;74;1823;-69
2023/09/27 10:53:00;;;;;;;;;;;21.00;57.40;;;;;;1574242;74;1695;-68
2023/09/27 10:55:12;;;;;;;;;;;21.00;57.40;;;;;;1577364;74;811;-67
2023/09/27 10:57:14;;;;;;;;;;;21.00;57.40;;;;;;1574343;74;1019;-68
2023/09/27 10:59:17;;;;;;;;;;;21.00;57.50;;;;;;1573618;74;1939;-67
2023/09/27 11:01:20;;;;;;;;;;;21.00;57.50;;;;;;1573735;74;1078;-68
2023/09/27 11:03:23;;;;;;;;;;;21.10;57.60;;;;;;1580843;74;866;-69
2023/09/27 11:05:25;;;;;;;;;;;21.00;57.50;;;;;;1576991;74;735;-69
2023/09/27 11:07:43;;;;;;;;;;;21.00;57.50;;;;;;1574964;74;745;-69
2023/09/27 11:09:48;;;;;;;;;;;21.00;57.50;;;;;;1572118;74;1085;-69
2023/09/27 11:11:50;;;;;;;;;;;21.00;57.60;;;;;;1575933;74;1613;-69
2023/09/27 11:13:52;;;;;;;;;;;21.00;57.70;;;;;;1560051;74;717;-69
2023/09/27 11:15:54;;;;;;;;;;;21.00;58.20;;;;;;1569074;74;779;-69
2023/09/27 11:17:56;;;;;;;;;;;21.00;58.30;;;;;;1570430;74;825;-68
2023/09/27 11:19:57;;;;;;;;;;;21.00;58.40;;;;;;1571778;74;1954;-67
2023/09/27 11:21:59;;;;;;;;;;;21.00;58.50;;;;;;1566947;74;699;-68
2023/09/27 11:24:07;;;;;;;;;;;21.00;58.50;;;;;;1571681;74;782;-68
2023/09/27 11:26:05;;;;;;;;;;;21.10;58.70;;;;;;1576934;74;1633;-69
2023/09/27 11:28:07;;;;;;;;;;;21.10;58.80;;;;;;1572934;74;758;-69
2023/09/27 11:30:10;;;;;;;;;;;21.00;58.60;;;;;;1543581;76;1176;-69
2023/09/27 11:32:14;;;;;;;;;;;21.00;58.80;;;;;;1567525;74;754;-68
2023/09/27 11:34:17;;;;;;;;;;;21.00;58.70;;;;;;1572677;74;720;-69
2023/09/27 11:36:18;;;;;;;;;;;21.10;58.90;;;;;;1571333;74;785;-69
2023/09/27 11:38:22;;;;;;;;;;;21.00;58.70;;;;;;1571645;74;1145;-69
2023/09/27 11:40:33;;;;;;;;;;;21.10;58.90;;;;;;1573100;74;1926;-69
2023/09/27 11:42:35;;;;;;;;;;;21.00;58.70;;;;;;1571040;74;840;-68
2023/09/27 11:44:37;;;;;;;;;;;21.10;58.60;;;;;;1573159;74;768;-70
2023/09/27 11:46:41;;;;;;;;;;;21.00;58.60;;;;;;1573863;74;725;-68
2023/09/27 11:48:43;;;;;;;;;;;21.00;58.60;;;;;;1580646;74;1568;-68
2023/09/27 11:50:45;;;;;;;;;;;21.00;58.50;;;;;;1574217;74;824;-71
2023/09/27 11:52:47;;;;;;;;;;;21.00;58.50;;;;;;1576315;74;668;-68
2023/09/27 11:54:49;;;;;;;;;;;21.00;58.40;;;;;;1578540;74;795;-69
2023/09/27 11:56:53;;;;;;;;;;;21.00;58.30;;;;;;1574792;74;704;-69
2023/09/27 11:58:54;;;;;;;;;;;21.00;58.50;;;;;;1574550;74;1946;-68
2023/09/27 12:00:56;;;;;;;;;;;21.00;58.50;;;;;;1573358;74;859;-70
2023/09/27 12:02:58;;;;;;;;;;;21.00;58.50;;;;;;1575525;74;694;-69
2023/09/27 12:05:06;;;;;;;;;;;21.00;58.50;;;;;;1575985;74;741;-69
2023/09/27 12:07:08;;;;;;;;;;;21.00;58.60;;;;;;1574840;74;761;-68
2023/09/27 12:09:11;;;;;;;;;;;21.00;58.60;;;;;;1570715;74;1100;-69
2023/09/27 12:11:12;;;;;;;;;;;21.10;58.70;;;;;;1576128;74;716;-69